Date,TemperatureHighF,TemperatureAvgF,TemperatureLowF,DewpointHighF,DewpointAvgF,DewpointLowF,HumidityHigh,HumidityAvg,HumidityLow,PressureMaxIn,PressureMinIn,WindSpeedMaxMPH,WindSpeedAvgMPH,GustSpeedMaxMPH,PrecipitationSumIn
2013-10-1,62.6,56.7,49.9,56.7,52.1,48.1,97,85,75,29.81,29.75,1,0,1,0.01
2013-10-2,70.2,60.8,56.2,63.3,57.1,51.7,97,88,74,29.87,29.77,5,0,5,0.00
2013-10-3,65.1,60.4,55.1,61.8,58.6,53.6,97,94,88,29.86,29.68,5,0,6,0.08
2013-10-4,70.7,63.3,59.4,61.8,59.4,56.6,98,87,67,29.94,29.65,10,1,11,0.01
2013-10-5,67.0,59.1,52.5,58.3,54.9,49.4,96,87,70,30.25,29.94,6,0,6,0.00
2013-10-6,71.3,54.0,42.4,55.7,48.1,41.1,98,83,50,30.30,30.24,5,0,5,0.01
2013-10-7,66.8,56.4,47.5,59.6,52.8,46.1,98,88,69,30.30,30.24,4,0,5,0.00
2013-10-8,65.8,59.9,52.1,59.4,56.5,50.4,98,89,76,30.27,30.22,5,0,6,0.01
2013-10-9,63.6,54.9,45.4,55.1,49.2,38.5,95,81,64,30.23,29.98,10,1,12,0.01
2013-10-10,53.7,47.3,42.6,41.2,39.0,36.6,82,73,60,30.13,30.01,12,2,16,0.00
2013-10-11,56.0,51.2,45.6,52.3,47.7,38.9,94,88,77,30.14,29.98,16,1,19,0.00
2013-10-12,61.9,53.5,48.7,52.4,48.7,45.4,95,84,59,30.12,29.98,9,0,10,0.00
2013-10-13,51.9,49.6,46.9,50.9,48.1,45.3,97,95,90,30.00,29.78,10,0,10,0.01
2013-10-14,51.2,48.1,46.5,48.2,46.4,45.3,97,94,88,29.78,29.70,6,0,6,0.00
2013-10-15,59.6,48.6,42.4,52.2,46.0,40.8,97,91,73,29.96,29.75,6,0,6,0.00
2013-10-16,59.2,49.3,38.5,58.6,47.1,37.3,99,92,79,29.97,29.68,8,0,9,0.01
2013-10-17,64.8,55.7,47.7,57.7,51.7,45.8,95,87,71,30.00,29.80,9,0,9,0.03
2013-10-18,62.5,57.5,48.3,57.9,54.4,46.8,98,89,83,30.02,29.76,2,0,2,0.03
2013-10-19,64.7,57.3,51.2,60.2,55.2,49.6,98,93,82,29.76,29.62,6,0,6,0.02
2013-10-20,64.0,55.1,50.8,57.9,53.2,49.3,98,94,79,29.73,29.61,9,0,9,0.01
2013-10-21,62.6,58.9,54.7,58.3,56.3,53.0,98,91,84,29.74,29.58,12,1,12,0.00
2013-10-22,64.5,59.9,54.4,60.0,57.4,52.9,97,91,83,29.58,29.31,8,1,9,0.01
2013-10-23,64.0,56.1,44.6,55.7,51.4,42.3,97,85,58,29.85,29.24,15,1,15,0.00
2013-10-24,65.7,50.4,38.7,58.8,47.0,37.6,99,89,65,29.98,29.81,4,0,5,0.00
2013-10-25,64.8,59.0,54.1,59.6,55.4,52.4,98,88,74,29.82,29.58,9,1,11,1.55
2013-10-26,61.3,59.0,57.1,56.5,54.5,52.8,93,85,79,29.69,29.46,11,2,12,0.01
2013-10-27,60.7,55.3,50.1,55.3,50.6,47.3,97,85,67,29.47,29.20,13,2,17,0.46
2013-10-28,60.2,52.5,45.4,58.6,48.7,42.6,98,87,68,29.59,28.86,22,2,23,0.27
2013-10-29,56.7,46.6,39.7,47.6,41.9,37.8,95,84,57,30.06,29.59,8,0,14,0.00
2013-10-30,58.4,46.7,33.8,51.2,42.9,32.7,98,87,68,30.18,30.06,9,0,9,0.01
2013-10-31,54.6,53.7,52.2,53.1,51.0,48.8,95,91,84,30.06,29.92,9,0,9,0.07